createdAt,value
2023-03-29T00:01:42.578Z,3.10
2023-03-29T00:04:15.902Z,3.05
2023-03-29T00:06:48.152Z,3.02
2023-03-29T00:09:20.029Z,3.05
2023-03-29T00:11:51.682Z,3.05
2023-03-29T00:14:38.915Z,2.98
2023-03-29T00:17:10.852Z,3.02
2023-03-29T00:19:49.593Z,3.04
2023-03-29T00:22:22.038Z,3.05
2023-03-29T00:24:54.521Z,3.05
2023-03-29T00:28:30.222Z,3.06
2023-03-29T00:31:18.928Z,3.07
2023-03-29T00:33:53.257Z,3.00
2023-03-29T00:36:24.961Z,2.98
2023-03-29T00:38:56.803Z,3.01
2023-03-29T00:41:29.451Z,2.98
2023-03-29T00:44:03.922Z,3.00
2023-03-29T00:46:46.457Z,3.00
2023-03-29T00:49:18.223Z,2.99
2023-03-29T00:51:53.683Z,3.00
2023-03-29T00:54:33.657Z,3.00
2023-03-29T01:00:55.399Z,2.93
2023-03-29T01:03:34.149Z,2.93
2023-03-29T01:06:09.169Z,2.91
2023-03-29T01:08:52.992Z,2.91
2023-03-29T01:11:39.354Z,2.91
2023-03-29T01:14:18.942Z,2.88
2023-03-29T01:16:51.911Z,2.87
2023-03-29T01:19:30.424Z,2.84
2023-03-29T01:22:22.479Z,2.81
2023-03-29T01:25:17.482Z,2.77
2023-03-29T01:28:06.384Z,2.78
2023-03-29T01:30:53.392Z,2.62
2023-03-29T01:33:31.640Z,2.53
2023-03-29T01:36:08.198Z,2.53
2023-03-29T01:38:54.531Z,2.49
2023-03-29T01:41:46.867Z,2.51
2023-03-29T01:44:35.376Z,2.48
2023-03-29T01:47:21.261Z,2.45
2023-03-29T01:50:18.987Z,2.38
2023-03-29T01:53:10.344Z,2.33
2023-03-29T01:55:48.700Z,2.30
2023-03-29T01:58:26.422Z,2.34
2023-03-29T02:01:00.296Z,2.41
2023-03-29T02:03:34.746Z,2.42
2023-03-29T02:06:13.672Z,2.44
2023-03-29T02:08:46.693Z,2.42
2023-03-29T02:11:20.002Z,2.39
2023-03-29T02:13:54.399Z,2.33
2023-03-29T02:16:26.907Z,2.27
2023-03-29T02:19:01.198Z,2.27
2023-03-29T02:21:42.581Z,2.27
2023-03-29T02:24:18.186Z,2.26
2023-03-29T02:26:50.249Z,2.26
2023-03-29T02:29:22.530Z,2.26
2023-03-29T02:32:00.181Z,2.26
2023-03-29T02:34:41.871Z,2.28
2023-03-29T02:37:18.901Z,2.33
2023-03-29T02:39:52.959Z,2.30
2023-03-29T02:42:31.420Z,2.34
2023-03-29T02:45:05.043Z,2.36
2023-03-29T02:47:45.631Z,2.37
2023-03-29T02:50:21.424Z,2.39
2023-03-29T02:52:59.260Z,2.43
2023-03-29T02:55:34.635Z,2.45
2023-03-29T02:58:08.419Z,2.49
2023-03-29T03:00:46.528Z,2.50
2023-03-29T03:03:18.459Z,2.51
2023-03-29T03:05:53.964Z,2.53
2023-03-29T03:08:26.226Z,2.53
2023-03-29T03:10:59.815Z,2.56
2023-03-29T03:13:31.795Z,2.57
2023-03-29T03:16:03.581Z,2.59
2023-03-29T03:18:35.678Z,2.61
2023-03-29T03:21:07.738Z,2.61
2023-03-29T03:23:39.588Z,2.64
2023-03-29T03:26:15.365Z,2.67
2023-03-29T03:28:48.869Z,2.68
2023-03-29T03:31:45.064Z,2.68
2023-03-29T03:34:35.694Z,2.67
2023-03-29T03:37:07.782Z,2.67
2023-03-29T03:39:40.472Z,2.67
2023-03-29T03:42:14.375Z,2.70
2023-03-29T03:44:49.787Z,2.73
2023-03-29T03:47:51.633Z,2.72
2023-03-29T03:50:29.006Z,2.73
2023-03-29T03:53:01.494Z,2.74
2023-03-29T03:55:52.688Z,2.74
2023-03-29T03:58:29.643Z,2.72
2023-03-29T04:01:02.384Z,2.77
2023-03-29T04:03:45.933Z,2.73
2023-03-29T04:06:20.842Z,2.76
2023-03-29T04:09:18.630Z,2.78
2023-03-29T04:12:01.767Z,2.79
2023-03-29T04:14:34.333Z,2.81
2023-03-29T04:17:10.529Z,2.79
2023-03-29T04:20:02.275Z,2.82
2023-03-29T04:22:39.745Z,2.83
2023-03-29T04:25:38.895Z,2.75
2023-03-29T04:28:46.618Z,2.70
2023-03-29T04:31:26.842Z,2.72
2023-03-29T04:34:33.466Z,2.75
2023-03-29T04:37:10.687Z,2.76
2023-03-29T04:39:44.795Z,2.78
2023-03-29T04:42:18.213Z,2.81
2023-03-29T04:44:53.227Z,2.81
2023-03-29T04:47:39.719Z,2.78
2023-03-29T04:50:17.194Z,2.77
2023-03-29T04:52:50.956Z,2.78
2023-03-29T04:55:23.062Z,2.77
2023-03-29T04:58:16.330Z,2.77
2023-03-29T05:00:49.410Z,2.82
2023-03-29T05:03:47.242Z,2.85
2023-03-29T05:06:31.780Z,2.86
2023-03-29T05:09:04.950Z,2.85
2023-03-29T05:11:47.271Z,2.91
2023-03-29T05:14:19.347Z,2.94
2023-03-29T05:16:54.299Z,2.96
2023-03-29T05:19:46.847Z,3.01
2023-03-29T05:22:20.214Z,3.06
2023-03-29T05:24:54.881Z,3.13
2023-03-29T05:27:28.877Z,3.12
2023-03-29T05:30:15.358Z,3.18
2023-03-29T05:32:56.948Z,3.29
2023-03-29T05:35:30.653Z,3.36
2023-03-29T05:38:04.907Z,3.42
2023-03-29T05:40:37.307Z,3.44
2023-03-29T05:43:20.028Z,3.36
2023-03-29T05:45:58.949Z,3.37
2023-03-29T05:48:54.571Z,3.41
2023-03-29T05:51:42.190Z,3.43
2023-03-29T05:54:15.066Z,3.47
2023-03-29T05:56:47.962Z,3.54
2023-03-29T05:59:29.743Z,3.65
2023-03-29T06:02:04.956Z,3.71
2023-03-29T06:04:38.539Z,3.82
2023-03-29T06:07:21.236Z,3.91
2023-03-29T06:10:15.857Z,3.98
2023-03-29T06:12:53.049Z,4.03
2023-03-29T06:15:27.686Z,4.08
2023-03-29T06:18:06.059Z,4.01
2023-03-29T06:20:39.849Z,4.02
2023-03-29T06:23:19.046Z,4.15
2023-03-29T06:25:55.229Z,4.32
2023-03-29T06:28:27.457Z,4.37
2023-03-29T06:31:02.876Z,4.31
2023-03-29T06:33:43.195Z,4.31
2023-03-29T06:36:29.550Z,4.26
2023-03-29T06:39:01.151Z,4.32
2023-03-29T06:41:51.460Z,4.38
2023-03-29T06:44:46.868Z,4.32
2023-03-29T06:47:31.577Z,4.35
2023-03-29T06:50:03.739Z,4.39
2023-03-29T06:52:52.951Z,4.34
2023-03-29T06:55:26.539Z,4.36
2023-03-29T06:58:02.246Z,4.36
2023-03-29T07:00:42.066Z,4.36
2023-03-29T07:03:23.326Z,4.43
2023-03-29T07:06:09.739Z,4.57
2023-03-29T07:08:46.182Z,4.66
2023-03-29T07:11:26.376Z,4.76
2023-03-29T07:14:05.720Z,4.81
2023-03-29T07:16:37.860Z,4.90
2023-03-29T07:19:35.936Z,4.80
2023-03-29T07:22:28.008Z,4.95
2023-03-29T07:25:05.784Z,5.05
2023-03-29T07:27:38.093Z,5.07
2023-03-29T07:30:13.459Z,4.99
2023-03-29T07:32:48.498Z,5.10
2023-03-29T07:35:38.302Z,5.16
2023-03-29T07:38:11.788Z,5.31
2023-03-29T07:40:51.552Z,5.35
2023-03-29T07:43:59.078Z,5.48
2023-03-29T07:46:31.606Z,5.45
2023-03-29T07:49:03.935Z,5.43
2023-03-29T07:51:37.561Z,5.39
2023-03-29T07:54:15.330Z,5.43
2023-03-29T07:56:58.966Z,5.48
2023-03-29T07:59:46.034Z,5.49
2023-03-29T08:02:33.514Z,5.55
2023-03-29T08:05:07.642Z,5.42
2023-03-29T08:07:51.827Z,5.26
2023-03-29T08:10:56.288Z,5.26
2023-03-29T08:13:44.004Z,5.39
2023-03-29T08:16:31.103Z,5.53
2023-03-29T08:19:12.177Z,5.56
2023-03-29T08:22:01.276Z,5.54
2023-03-29T08:24:42.426Z,5.52
2023-03-29T08:27:14.850Z,5.46
2023-03-29T08:29:47.227Z,5.43
2023-03-29T08:32:19.380Z,5.38
2023-03-29T08:34:51.168Z,5.24
2023-03-29T08:37:28.169Z,5.28
2023-03-29T08:40:03.269Z,5.34
2023-03-29T08:43:13.967Z,5.26
2023-03-29T08:46:42.355Z,5.31
2023-03-29T08:49:38.139Z,5.34
2023-03-29T08:52:27.893Z,5.41
2023-03-29T08:55:02.504Z,5.50
2023-03-29T08:58:19.079Z,5.41
2023-03-29T09:00:55.891Z,5.41
2023-03-29T09:03:34.493Z,5.34
2023-03-29T09:06:22.080Z,5.37
2023-03-29T09:08:56.027Z,5.41
2023-03-29T09:11:40.999Z,5.42
2023-03-29T09:14:35.788Z,5.34
2023-03-29T09:17:27.566Z,5.34
2023-03-29T09:20:21.819Z,5.39
2023-03-29T09:23:08.834Z,5.39
2023-03-29T09:26:04.911Z,5.34
2023-03-29T09:29:23.757Z,5.28
2023-03-29T09:31:58.658Z,5.31
2023-03-29T09:34:42.914Z,5.25
2023-03-29T09:37:30.198Z,5.26
2023-03-29T09:40:10.310Z,5.20
2023-03-29T09:42:57.279Z,5.31
2023-03-29T09:45:29.348Z,5.45
2023-03-29T09:48:15.354Z,5.57
2023-03-29T09:50:57.705Z,5.69
2023-03-29T09:53:29.683Z,5.69
2023-03-29T09:56:21.488Z,5.78
2023-03-29T09:58:56.527Z,5.88
2023-03-29T10:01:41.585Z,5.99
2023-03-29T10:04:16.881Z,6.11
2023-03-29T10:06:55.221Z,6.21
2023-03-29T10:09:29.960Z,6.18
2023-03-29T10:12:14.101Z,6.33
2023-03-29T10:14:51.484Z,6.42
2023-03-29T10:17:28.208Z,6.51
2023-03-29T10:20:04.517Z,6.52
2023-03-29T10:22:38.227Z,6.50
2023-03-29T10:25:15.079Z,6.46
2023-03-29T10:27:47.872Z,6.51
2023-03-29T10:30:24.433Z,6.66
2023-03-29T10:32:58.806Z,6.77
2023-03-29T10:35:33.437Z,6.77
2023-03-29T10:38:10.383Z,6.75
2023-03-29T10:40:51.841Z,6.90
2023-03-29T10:43:29.678Z,6.83
2023-03-29T10:46:15.082Z,6.81
2023-03-29T10:48:59.929Z,6.91
2023-03-29T10:51:32.635Z,6.99
2023-03-29T10:54:05.355Z,7.13
2023-03-29T10:56:51.363Z,7.17
2023-03-29T10:59:36.527Z,7.54
2023-03-29T11:02:35.510Z,8.02
2023-03-29T11:05:24.532Z,8.46
2023-03-29T11:08:34.889Z,8.68
2023-03-29T11:11:44.383Z,9.03
2023-03-29T11:15:07.957Z,9.32
2023-03-29T11:17:50.892Z,9.54
2023-03-29T11:20:37.446Z,9.74
2023-03-29T11:24:00.216Z,9.76
2023-03-29T11:26:51.151Z,9.85
2023-03-29T11:29:36.458Z,9.85
2023-03-29T11:32:45.918Z,9.99
2023-03-29T11:35:43.412Z,10.11
2023-03-29T11:38:39.969Z,10.42
2023-03-29T11:41:21.508Z,10.55
2023-03-29T11:44:03.860Z,10.55
2023-03-29T11:47:03.720Z,10.27
2023-03-29T11:49:44.573Z,10.09
2023-03-29T11:52:27.659Z,9.89
2023-03-29T11:55:05.489Z,9.82
2023-03-29T11:57:44.077Z,9.82
2023-03-29T12:00:55.721Z,9.76
2023-03-29T12:03:41.184Z,9.64
2023-03-29T12:06:16.636Z,9.49
2023-03-29T12:08:54.347Z,9.37
2023-03-29T12:11:32.113Z,9.28
2023-03-29T12:14:11.113Z,9.27
2023-03-29T12:16:52.007Z,9.35
2023-03-29T12:19:48.689Z,9.50
2023-03-29T12:22:23.410Z,9.54
2023-03-29T12:24:57.569Z,9.56
2023-03-29T12:27:48.318Z,9.52
2023-03-29T12:30:58.352Z,9.48
2023-03-29T12:34:01.479Z,9.64
2023-03-29T12:37:25.259Z,9.75
2023-03-29T12:40:28.316Z,9.71
2023-03-29T12:43:32.022Z,9.75
2023-03-29T12:46:27.540Z,9.91
2023-03-29T12:49:11.455Z,10.01
2023-03-29T12:51:46.537Z,9.97
2023-03-29T12:54:23.436Z,10.05
2023-03-29T12:57:01.092Z,10.04
2023-03-29T12:59:38.006Z,9.96
2023-03-29T13:02:18.628Z,9.97
2023-03-29T13:04:53.706Z,9.97
2023-03-29T13:07:27.036Z,10.12
2023-03-29T13:10:09.299Z,10.21
2023-03-29T13:12:45.848Z,10.26
2023-03-29T13:15:25.979Z,10.36
2023-03-29T13:18:18.519Z,10.54
2023-03-29T13:21:13.097Z,10.77
2023-03-29T13:24:15.958Z,10.95
2023-03-29T13:27:14.681Z,11.37
2023-03-29T13:30:06.344Z,11.87
2023-03-29T13:32:59.768Z,12.05
2023-03-29T13:36:02.837Z,12.02
2023-03-29T13:38:48.840Z,12.03
2023-03-29T13:41:38.914Z,12.20
2023-03-29T13:44:23.277Z,12.12
2023-03-29T13:47:04.670Z,12.19
2023-03-29T13:49:36.713Z,12.34
2023-03-29T13:52:33.359Z,12.41
2023-03-29T13:55:14.591Z,12.28
2023-03-29T13:57:58.265Z,12.21
2023-03-29T14:00:40.085Z,12.28
2023-03-29T14:03:18.680Z,12.28
2023-03-29T14:05:57.324Z,12.41
2023-03-29T14:08:30.609Z,12.58
2023-03-29T14:11:04.781Z,12.50
2023-03-29T14:13:37.072Z,12.36
2023-03-29T14:16:11.775Z,12.32
2023-03-29T14:18:44.740Z,12.12
2023-03-29T14:21:17.736Z,12.15
2023-03-29T14:24:02.973Z,12.05
2023-03-29T14:26:35.929Z,12.09
2023-03-29T14:29:11.112Z,12.13
2023-03-29T14:31:46.055Z,12.15
2023-03-29T14:34:18.844Z,12.07
2023-03-29T14:36:54.101Z,11.92
2023-03-29T14:39:26.455Z,11.80
2023-03-29T14:41:58.611Z,11.72
2023-03-29T14:44:34.672Z,11.75
2023-03-29T14:47:06.581Z,11.75
2023-03-29T14:49:38.571Z,11.79
2023-03-29T14:52:12.653Z,11.78
2023-03-29T14:54:48.632Z,11.83
2023-03-29T14:57:25.106Z,11.87
2023-03-29T15:00:24.124Z,11.94
2023-03-29T15:03:01.404Z,11.96
2023-03-29T15:05:42.471Z,12.04
2023-03-29T15:08:18.490Z,12.10
2023-03-29T15:10:50.774Z,12.12
2023-03-29T15:13:24.713Z,12.16
2023-03-29T15:16:03.969Z,12.12
2023-03-29T15:18:40.479Z,12.12
2023-03-29T15:23:53.144Z,12.02
2023-03-29T15:26:37.617Z,12.04
2023-03-29T15:29:17.489Z,12.02
2023-03-29T15:31:57.264Z,11.91
2023-03-29T15:34:33.614Z,11.94
2023-03-29T15:37:09.022Z,11.84
2023-03-29T15:39:44.299Z,11.77
2023-03-29T15:42:18.273Z,11.76
2023-03-29T15:44:54.088Z,11.77
2023-03-29T15:47:26.491Z,11.76
2023-03-29T15:49:58.590Z,11.79
2023-03-29T15:52:31.488Z,11.79
2023-03-29T15:55:03.460Z,11.77
2023-03-29T15:57:35.974Z,11.70
2023-03-29T16:00:13.780Z,11.67
2023-03-29T16:02:46.528Z,11.65
2023-03-29T16:05:18.426Z,11.65
2023-03-29T16:07:50.435Z,11.64
2023-03-29T16:10:22.201Z,11.62
2023-03-29T16:12:56.057Z,11.61
2023-03-29T16:15:28.497Z,11.65
2023-03-29T16:18:03.512Z,11.63
2023-03-29T16:20:35.578Z,11.61
2023-03-29T16:23:09.496Z,11.60
2023-03-29T16:25:41.752Z,11.59
2023-03-29T16:28:13.445Z,11.54
2023-03-29T16:30:45.320Z,11.55
2023-03-29T16:33:17.177Z,11.52
2023-03-29T16:35:49.064Z,11.55
2023-03-29T16:38:21.832Z,11.57
2023-03-29T16:40:53.766Z,11.57
2023-03-29T16:43:26.043Z,11.59
2023-03-29T16:45:57.787Z,11.61
2023-03-29T16:48:29.530Z,11.61
2023-03-29T16:51:02.184Z,11.59
2023-03-29T16:53:34.726Z,11.57
2023-03-29T16:56:07.954Z,11.58
2023-03-29T16:58:39.818Z,11.61
2023-03-29T17:01:14.099Z,11.61
2023-03-29T17:03:49.340Z,11.60
2023-03-29T17:06:21.002Z,11.60
2023-03-29T17:08:54.105Z,11.56
2023-03-29T17:11:26.918Z,11.57
2023-03-29T17:14:00.182Z,11.56
2023-03-29T17:16:32.268Z,11.55
2023-03-29T17:19:04.100Z,11.54
2023-03-29T17:21:36.156Z,11.53
2023-03-29T17:24:09.788Z,11.50
2023-03-29T17:26:43.825Z,11.47
2023-03-29T17:29:19.414Z,11.46
2023-03-29T17:31:55.764Z,11.47
2023-03-29T17:34:28.980Z,11.48
2023-03-29T17:37:01.274Z,11.48
2023-03-29T17:39:37.280Z,11.47
2023-03-29T17:42:09.160Z,11.47
2023-03-29T17:44:40.860Z,11.47
2023-03-29T17:47:12.697Z,11.47
2023-03-29T17:49:44.516Z,11.47
2023-03-29T17:52:16.206Z,11.45
2023-03-29T17:54:50.622Z,11.43
2023-03-29T17:57:22.539Z,11.40
2023-03-29T17:59:54.356Z,11.40
2023-03-29T18:02:26.635Z,11.37
2023-03-29T18:05:01.662Z,11.36
2023-03-29T18:07:33.666Z,11.34
2023-03-29T18:10:07.581Z,11.31
2023-03-29T18:12:39.353Z,11.29
2023-03-29T18:15:12.204Z,11.27
2023-03-29T18:17:46.068Z,11.25
2023-03-29T18:20:20.534Z,11.16
2023-03-29T18:22:53.675Z,11.15
2023-03-29T18:25:25.589Z,11.14
2023-03-29T18:27:57.341Z,11.07
2023-03-29T18:30:32.019Z,10.98
2023-03-29T18:33:03.849Z,10.95
2023-03-29T18:35:37.361Z,10.90
2023-03-29T18:38:09.202Z,10.87
2023-03-29T18:40:41.396Z,10.82
2023-03-29T18:43:13.778Z,10.78
2023-03-29T18:45:48.749Z,10.76
2023-03-29T18:48:20.606Z,10.73
2023-03-29T18:50:52.575Z,10.72
2023-03-29T18:53:25.731Z,10.71
2023-03-29T18:55:58.111Z,10.71
2023-03-29T18:58:30.698Z,10.72
2023-03-29T19:01:05.222Z,10.68
2023-03-29T19:03:37.300Z,10.64
2023-03-29T19:06:09.304Z,10.65
2023-03-29T19:08:42.139Z,10.63
2023-03-29T19:11:14.984Z,10.63
2023-03-29T19:13:50.232Z,10.63
2023-03-29T19:16:22.225Z,10.61
2023-03-29T19:18:55.263Z,10.58
2023-03-29T19:21:27.995Z,10.56
2023-03-29T19:24:00.987Z,10.60
2023-03-29T19:26:35.836Z,10.60
2023-03-29T19:29:07.745Z,10.58
2023-03-29T19:31:44.521Z,10.58
2023-03-29T19:34:19.645Z,10.60
2023-03-29T19:36:53.626Z,10.61
2023-03-29T19:39:27.954Z,10.61
2023-03-29T19:42:01.773Z,10.59
2023-03-29T19:44:34.473Z,10.57
2023-03-29T19:47:08.901Z,10.61
2023-03-29T19:49:40.998Z,10.62
2023-03-29T19:52:12.797Z,10.61
2023-03-29T19:54:44.648Z,10.61
2023-03-29T19:57:17.813Z,10.61
2023-03-29T19:59:49.610Z,10.62
2023-03-29T20:02:24.412Z,10.60
2023-03-29T20:04:57.637Z,10.60
2023-03-29T20:07:29.465Z,10.58
2023-03-29T20:10:01.588Z,10.57
2023-03-29T20:12:33.337Z,10.55
2023-03-29T20:15:06.181Z,10.51
2023-03-29T20:17:40.998Z,10.49
2023-03-29T20:20:13.991Z,10.43
2023-03-29T20:22:46.178Z,10.35
2023-03-29T20:25:18.122Z,10.33
2023-03-29T20:27:51.625Z,10.33
2023-03-29T20:30:23.903Z,10.29
2023-03-29T20:32:55.756Z,10.25
2023-03-29T20:35:27.671Z,10.23
2023-03-29T20:37:59.558Z,10.21
2023-03-29T20:40:31.759Z,10.19
2023-03-29T20:43:03.502Z,10.15
2023-03-29T20:45:50.102Z,10.09
2023-03-29T20:48:33.895Z,10.02
2023-03-29T20:51:10.134Z,9.99
2023-03-29T20:53:42.946Z,9.95
2023-03-29T20:56:15.028Z,9.87
2023-03-29T20:58:46.944Z,9.83
2023-03-29T21:01:21.855Z,9.77
2023-03-29T21:03:54.354Z,9.71
2023-03-29T21:06:26.162Z,9.69
2023-03-29T21:09:02.705Z,9.63
2023-03-29T21:11:34.488Z,9.61
2023-03-29T21:14:06.528Z,9.57
2023-03-29T21:16:41.652Z,9.55
2023-03-29T21:19:14.814Z,9.52
2023-03-29T21:21:50.095Z,9.48
2023-03-29T21:24:22.094Z,9.42
2023-03-29T21:26:53.979Z,9.42
2023-03-29T21:29:25.887Z,9.45
2023-03-29T21:31:57.899Z,9.44
2023-03-29T21:34:29.785Z,9.45
2023-03-29T21:37:01.849Z,9.42
2023-03-29T21:39:33.629Z,9.44
2023-03-29T21:42:08.548Z,9.42
2023-03-29T21:44:40.516Z,9.45
2023-03-29T21:47:12.286Z,9.44
2023-03-29T21:49:44.106Z,9.41
2023-03-29T21:52:15.873Z,9.39
2023-03-29T21:54:47.620Z,9.33
2023-03-29T21:57:19.419Z,9.34
2023-03-29T21:59:51.392Z,9.37
2023-03-29T22:02:23.382Z,9.40
2023-03-29T22:04:55.153Z,9.44
2023-03-29T22:07:26.996Z,9.44
2023-03-29T22:10:04.136Z,9.45
2023-03-29T22:12:37.377Z,9.48
2023-03-29T22:15:12.124Z,9.51
2023-03-29T22:17:43.704Z,9.48
2023-03-29T22:20:18.542Z,9.51
2023-03-29T22:22:50.865Z,9.54
2023-03-29T22:25:24.350Z,9.51
2023-03-29T22:28:00.067Z,9.52
2023-03-29T22:30:31.907Z,9.53
2023-03-29T22:33:03.613Z,9.55
2023-03-29T22:35:36.272Z,9.57
2023-03-29T22:38:08.210Z,9.63
2023-03-29T22:40:40.809Z,9.63
2023-03-29T22:43:13.547Z,9.62
2023-03-29T22:45:45.404Z,9.63
2023-03-29T22:48:17.109Z,9.65
2023-03-29T22:50:48.835Z,9.65
2023-03-29T22:53:21.193Z,9.66
2023-03-29T22:55:53.716Z,9.62
2023-03-29T22:58:25.706Z,9.62
2023-03-29T23:00:57.854Z,9.62
2023-03-29T23:03:29.671Z,9.59
2023-03-29T23:06:04.541Z,9.55
2023-03-29T23:08:36.308Z,9.52
2023-03-29T23:11:08.088Z,9.48
2023-03-29T23:13:39.883Z,9.44
2023-03-29T23:16:11.808Z,9.43
2023-03-29T23:18:43.533Z,9.36
2023-03-29T23:21:15.252Z,9.34
2023-03-29T23:23:46.978Z,9.34
2023-03-29T23:26:18.969Z,9.35
2023-03-29T23:28:51.597Z,9.32
2023-03-29T23:31:23.857Z,9.33
2023-03-29T23:33:55.684Z,9.36
2023-03-29T23:36:31.134Z,9.38
2023-03-29T23:39:02.911Z,9.39
2023-03-29T23:41:34.661Z,9.42
2023-03-29T23:44:06.851Z,9.40
2023-03-29T23:46:39.173Z,9.42
2023-03-29T23:49:10.907Z,9.40
2023-03-29T23:51:45.052Z,9.35
2023-03-29T23:54:17.486Z,9.34
2023-03-29T23:56:49.293Z,9.25
2023-03-29T23:59:26.895Z,9.23
